Decoded Metar for VDSR (SIEM-REAP in CAMBODIA) (IATA:REP) | Meteo·Mobile Aviation Weather
aviador You're here:

VDSR Decoded Metar

SIEM-REAP in CAMBODIA
Report Time2019-10-22 14:00:00
UTC Time2019-10-22 14:17:53
Flight Rules vfr VFR
WindCalm
Visibility9999 m
Phenomena:N/A
Clouds:N/A
Expected CloudBase > 1,200 ft AGL from Temp-Dew spread
CeilingNone
Temp29°C (ISA +14)
Dew Point26°C (84% RH)
Heat Index35.6°C
QNH1008 hPa
Density Alt2,277 ft
Elevation49 ft
Report Wrong Elevation
Raw Report
VDSR 221400Z 00000KT 9999 SCT01 29/26 Q1008=

Extra information for VDSR:More info

Metar Taf Metar & Taf Last 4 Metars F.Rules Stats Wind Profile Meteogram Temp Stats Airport Information Weather charts Add Link Nearby VenuesMetar ALERT Operation Metar Decoded Social comments